createdAt,value
2022-11-28T00:00:54.585Z,100845.38
2022-11-28T00:03:25.039Z,100830.78
2022-11-28T00:05:59.608Z,100778.50
2022-11-28T00:08:29.758Z,100773.66
2022-11-28T00:10:59.672Z,100828.38
2022-11-28T00:13:29.828Z,100814.50
2022-11-28T00:16:03.822Z,100734.00
2022-11-28T00:18:34.083Z,100701.69
2022-11-28T00:21:04.442Z,100820.75
2022-11-28T00:23:34.621Z,100830.28
2022-11-28T00:26:08.306Z,100837.84
2022-11-28T00:28:38.511Z,100820.13
2022-11-28T00:31:15.703Z,100827.25
2022-11-28T00:33:47.247Z,100819.78
2022-11-28T00:36:18.561Z,100814.16
2022-11-28T00:38:48.864Z,100762.69
2022-11-28T00:41:20.496Z,100806.22
2022-11-28T00:43:53.180Z,100709.31
2022-11-28T00:46:26.692Z,100777.19
2022-11-28T00:48:56.660Z,100791.84
2022-11-28T00:51:28.508Z,100727.28
2022-11-28T00:53:59.993Z,100761.34
2022-11-28T00:56:31.846Z,100693.63
2022-11-28T00:59:02.110Z,100765.91
2022-11-28T01:01:36.651Z,100746.63
2022-11-28T01:04:09.813Z,100691.19
2022-11-28T01:06:42.577Z,100745.47
2022-11-28T01:09:14.982Z,100755.72
2022-11-28T01:11:46.445Z,100748.75
2022-11-28T01:14:16.649Z,100729.91
2022-11-28T01:16:49.288Z,100690.00
2022-11-28T01:19:20.042Z,100730.59
2022-11-28T01:21:50.272Z,100735.38
2022-11-28T01:24:20.346Z,100674.50
2022-11-28T01:26:50.267Z,100684.59
2022-11-28T01:29:20.274Z,100674.31
2022-11-28T01:31:52.979Z,100722.16
2022-11-28T01:34:22.993Z,100667.16
2022-11-28T01:36:52.896Z,100687.56
2022-11-28T01:39:22.788Z,100641.19
2022-11-28T01:41:52.687Z,100695.88
2022-11-28T01:44:58.415Z,100695.22
2022-11-28T01:47:33.507Z,100697.88
2022-11-28T01:50:03.981Z,100647.66
2022-11-28T01:52:34.072Z,100692.41
2022-11-28T01:55:05.784Z,100620.94
2022-11-28T01:57:36.189Z,100651.19
2022-11-28T02:00:10.500Z,100681.00
2022-11-28T02:02:50.643Z,100624.09
2022-11-28T02:05:22.447Z,100674.38
2022-11-28T02:07:54.315Z,100638.91
2022-11-28T02:10:28.396Z,100617.38
2022-11-28T02:13:16.612Z,100600.97
2022-11-28T02:16:01.645Z,100646.81
2022-11-28T02:18:51.363Z,100597.69
2022-11-28T02:21:43.647Z,100586.75
2022-11-28T02:24:41.212Z,100643.38
2022-11-28T02:27:39.003Z,100648.59
2022-11-28T02:30:18.155Z,100587.41
2022-11-28T02:33:09.852Z,100624.63
2022-11-28T02:35:52.527Z,100602.97
2022-11-28T02:38:31.796Z,100584.47
2022-11-28T02:41:09.438Z,100588.88
2022-11-28T02:43:45.770Z,100666.00
2022-11-28T02:46:19.598Z,100613.59
2022-11-28T02:48:58.118Z,100653.31
2022-11-28T02:51:34.940Z,100638.88
2022-11-28T02:54:07.538Z,100670.22
2022-11-28T02:56:37.894Z,100602.66
2022-11-28T02:59:08.491Z,100617.53
2022-11-28T03:01:42.413Z,100647.66
2022-11-28T03:04:29.022Z,100616.84
2022-11-28T03:07:10.152Z,100629.56
2022-11-28T03:10:04.634Z,100575.31
2022-11-28T03:12:44.322Z,100580.41
2022-11-28T03:15:16.459Z,100642.09
2022-11-28T03:17:55.119Z,100621.06
2022-11-28T03:20:39.650Z,100573.16
2022-11-28T03:23:17.541Z,100578.06
2022-11-28T03:25:58.109Z,100625.53
2022-11-28T03:28:33.282Z,100641.00
2022-11-28T03:31:06.710Z,100625.56
2022-11-28T03:33:40.138Z,100629.25
2022-11-28T03:36:17.968Z,100626.00
2022-11-28T03:38:53.931Z,100588.81
2022-11-28T03:41:28.636Z,100615.53
2022-11-28T03:44:01.107Z,100559.00
2022-11-28T03:46:44.825Z,100619.59
2022-11-28T03:49:18.769Z,100630.56
2022-11-28T03:51:56.125Z,100556.50
2022-11-28T03:54:31.546Z,100617.84
2022-11-28T03:57:07.978Z,100559.00
2022-11-28T03:59:41.266Z,100609.84
2022-11-28T04:02:19.150Z,100557.19
2022-11-28T04:04:56.891Z,100542.72
2022-11-28T04:07:35.122Z,100618.69
2022-11-28T04:10:09.501Z,100543.66
2022-11-28T04:12:49.140Z,100600.56
2022-11-28T04:15:23.958Z,100559.53
2022-11-28T04:18:01.113Z,100554.69
2022-11-28T04:20:38.583Z,100594.13
2022-11-28T04:23:15.401Z,100571.19
2022-11-28T04:25:51.421Z,100616.97
2022-11-28T04:28:26.590Z,100531.72
2022-11-28T04:30:59.319Z,100564.47
2022-11-28T04:33:31.891Z,100531.28
2022-11-28T04:36:04.466Z,100597.63
2022-11-28T04:38:38.338Z,100584.09
2022-11-28T04:41:13.283Z,100522.78
2022-11-28T04:43:46.473Z,100586.47
2022-11-28T04:46:21.118Z,100564.16
2022-11-28T04:48:51.170Z,100553.75
2022-11-28T04:51:25.364Z,100580.53
2022-11-28T04:54:07.907Z,100559.66
2022-11-28T04:56:46.842Z,100567.56
2022-11-28T04:59:17.652Z,100569.94
2022-11-28T05:01:50.927Z,100536.72
2022-11-28T05:04:21.064Z,100570.38
2022-11-28T05:06:51.066Z,100518.66
2022-11-28T05:09:23.527Z,100568.69
2022-11-28T05:11:53.342Z,100544.53
2022-11-28T05:14:23.478Z,100564.63
2022-11-28T05:16:53.638Z,100587.59
2022-11-28T05:19:23.773Z,100529.38
2022-11-28T05:21:53.680Z,100530.91
2022-11-28T05:24:31.959Z,100603.28
2022-11-28T05:27:02.184Z,100571.56
2022-11-28T05:29:32.136Z,100532.06
2022-11-28T05:32:02.035Z,100522.78
2022-11-28T05:34:32.077Z,100567.13
2022-11-28T05:37:01.919Z,100575.25
2022-11-28T05:39:34.855Z,100572.72
2022-11-28T05:42:04.749Z,100576.34
2022-11-28T05:44:34.679Z,100580.56
2022-11-28T05:47:04.640Z,100526.13
2022-11-28T05:49:34.633Z,100542.50
2022-11-28T05:52:04.527Z,100578.75
2022-11-28T05:54:37.179Z,100557.56
2022-11-28T05:57:09.092Z,100525.00
2022-11-28T05:59:40.282Z,100513.03
2022-11-28T06:02:10.396Z,100530.13
2022-11-28T06:04:42.097Z,100551.00
2022-11-28T06:07:12.106Z,100566.34
2022-11-28T06:09:45.822Z,100565.94
2022-11-28T06:12:15.877Z,100515.03
2022-11-28T06:14:45.877Z,100558.72
2022-11-28T06:17:16.879Z,100560.09
2022-11-28T06:19:48.839Z,100522.16
2022-11-28T06:22:19.831Z,100584.13
2022-11-28T06:24:53.899Z,100531.00
2022-11-28T06:27:23.806Z,100530.53
2022-11-28T06:29:54.811Z,100569.84
2022-11-28T06:32:24.763Z,100570.06
2022-11-28T06:34:55.795Z,100579.34
2022-11-28T06:37:25.714Z,100593.59
2022-11-28T06:39:59.280Z,100571.00
2022-11-28T06:42:29.268Z,100526.16
2022-11-28T06:45:00.212Z,100578.75
2022-11-28T06:47:30.080Z,100542.31
2022-11-28T06:50:02.006Z,100531.09
2022-11-28T06:52:31.957Z,100546.41
2022-11-28T06:55:06.000Z,100574.03
2022-11-28T06:57:36.858Z,100582.81
2022-11-28T07:00:09.210Z,100610.03
2022-11-28T07:02:42.093Z,100554.78
2022-11-28T07:05:13.228Z,100527.16
2022-11-28T07:07:53.566Z,100622.41
2022-11-28T07:10:29.062Z,100579.59
2022-11-28T07:13:05.330Z,100595.22
2022-11-28T07:15:36.417Z,100569.00
2022-11-28T07:18:08.550Z,100599.63
2022-11-28T07:20:39.999Z,100632.47
2022-11-28T07:23:10.369Z,100612.25
2022-11-28T07:25:44.393Z,100615.06
2022-11-28T07:28:14.864Z,100646.25
2022-11-28T07:30:45.373Z,100644.53
2022-11-28T07:33:16.454Z,100569.31
2022-11-28T07:35:47.332Z,100587.75
2022-11-28T07:38:17.309Z,100628.59
2022-11-28T07:40:50.526Z,100639.91
2022-11-28T07:43:21.419Z,100593.44
2022-11-28T07:46:00.533Z,100656.81
2022-11-28T07:48:33.432Z,100648.38
2022-11-28T07:51:09.395Z,100582.44
2022-11-28T07:53:39.849Z,100646.78
2022-11-28T07:56:15.363Z,100622.91
2022-11-28T07:58:47.222Z,100586.09
2022-11-28T08:01:19.827Z,100626.47
2022-11-28T08:03:56.191Z,100620.13
2022-11-28T08:06:29.746Z,100575.25
2022-11-28T08:09:02.519Z,100640.94
2022-11-28T08:11:36.691Z,100576.53
2022-11-28T08:14:06.999Z,100584.22
2022-11-28T08:16:37.238Z,100650.44
2022-11-28T08:19:08.275Z,100631.22
2022-11-28T08:21:38.146Z,100615.59
2022-11-28T08:24:10.769Z,100648.63
2022-11-28T08:26:43.430Z,100638.47
2022-11-28T08:29:14.370Z,100622.22
2022-11-28T08:31:45.344Z,100555.81
2022-11-28T08:34:15.292Z,100624.84
2022-11-28T08:36:47.440Z,100634.25
2022-11-28T08:39:25.499Z,100622.25
2022-11-28T08:42:00.356Z,100632.84
2022-11-28T08:44:31.230Z,100623.06
2022-11-28T08:47:01.208Z,100630.78
2022-11-28T08:49:32.617Z,100638.56
2022-11-28T08:52:03.588Z,100616.19
2022-11-28T08:54:33.560Z,100599.88
2022-11-28T08:57:07.348Z,100592.97
2022-11-28T08:59:37.389Z,100636.94
2022-11-28T09:02:08.380Z,100644.88
2022-11-28T09:04:38.402Z,100646.97
2022-11-28T09:07:09.484Z,100603.22
2022-11-28T09:09:40.466Z,100646.00
2022-11-28T09:12:13.770Z,100646.09
2022-11-28T09:14:43.890Z,100596.75
2022-11-28T09:17:15.845Z,100619.81
2022-11-28T09:19:46.904Z,100609.56
2022-11-28T09:22:17.874Z,100630.56
2022-11-28T09:24:47.784Z,100635.00
2022-11-28T09:27:22.409Z,100624.91
2022-11-28T09:29:53.329Z,100649.34
2022-11-28T09:32:24.303Z,100660.47
2022-11-28T09:34:55.256Z,100649.13
2022-11-28T09:37:26.299Z,100595.09
2022-11-28T09:40:12.623Z,100621.69
2022-11-28T09:42:47.178Z,100658.50
2022-11-28T09:45:20.114Z,100657.31
2022-11-28T09:47:56.302Z,100639.28
2022-11-28T09:50:30.218Z,100610.50
2022-11-28T09:53:05.121Z,100596.19
2022-11-28T09:55:42.064Z,100639.03
2022-11-28T09:58:21.121Z,100652.50
2022-11-28T10:00:59.759Z,100635.56
2022-11-28T10:03:39.428Z,100604.38
2022-11-28T10:06:19.260Z,100638.84
2022-11-28T10:09:11.696Z,100598.25
2022-11-28T10:11:52.796Z,100590.50
2022-11-28T10:14:57.907Z,100605.47
2022-11-28T10:17:39.827Z,100584.00
2022-11-28T10:20:17.108Z,100622.19
2022-11-28T10:22:51.385Z,100589.69
2022-11-28T10:25:27.825Z,100612.41
2022-11-28T10:27:59.853Z,100631.94
2022-11-28T10:30:39.154Z,100604.72
2022-11-28T10:33:24.171Z,100625.53
2022-11-28T10:35:59.355Z,100629.56
2022-11-28T10:38:31.646Z,100575.31
2022-11-28T10:41:07.549Z,100604.84
2022-11-28T10:43:46.897Z,100635.69
2022-11-28T10:46:45.808Z,100623.88
2022-11-28T10:49:45.434Z,100624.72
2022-11-28T10:52:22.495Z,100627.31
2022-11-28T10:55:07.837Z,100608.66
2022-11-28T10:57:45.452Z,100567.91
2022-11-28T11:00:18.262Z,100561.25
2022-11-28T11:02:54.829Z,100628.13
2022-11-28T11:05:29.738Z,100592.56
2022-11-28T11:08:02.131Z,100561.19
2022-11-28T11:10:38.921Z,100625.28
2022-11-28T11:13:17.480Z,100615.72
2022-11-28T11:15:48.365Z,100609.59
2022-11-28T11:18:28.744Z,100629.69
2022-11-28T11:21:17.315Z,100584.44
2022-11-28T11:23:48.404Z,100613.41
2022-11-28T11:26:26.133Z,100610.44
2022-11-28T11:28:59.128Z,100600.38
2022-11-28T11:31:34.112Z,100574.78
2022-11-28T11:34:09.530Z,100566.66
2022-11-28T11:36:40.123Z,100586.56
2022-11-28T11:39:23.060Z,100595.13
2022-11-28T11:41:54.735Z,100601.25
2022-11-28T11:44:34.508Z,100586.25
2022-11-28T11:47:07.695Z,100592.22
2022-11-28T11:49:41.791Z,100596.03
2022-11-28T11:52:20.566Z,100564.34
2022-11-28T11:55:00.641Z,100602.81
2022-11-28T11:57:35.119Z,100602.84
2022-11-28T12:00:10.133Z,100560.53
2022-11-28T12:02:47.184Z,100585.91
2022-11-28T12:05:23.296Z,100560.16
2022-11-28T12:08:00.134Z,100602.44
2022-11-28T12:10:33.204Z,100613.56
2022-11-28T12:13:04.851Z,100527.63
2022-11-28T12:15:45.723Z,100579.31
2022-11-28T12:18:28.338Z,100613.94
2022-11-28T12:21:14.073Z,100598.44
2022-11-28T12:23:58.451Z,100611.25
2022-11-28T12:26:35.643Z,100612.91
2022-11-28T12:29:29.123Z,100611.22
2022-11-28T12:32:11.233Z,100613.00
2022-11-28T12:34:52.814Z,100603.06
2022-11-28T12:38:09.020Z,100600.63
2022-11-28T12:40:38.483Z,100541.16
2022-11-28T12:43:25.468Z,100589.63
2022-11-28T12:46:02.669Z,100600.69
2022-11-28T12:48:52.832Z,100587.66
2022-11-28T12:51:33.636Z,100600.44
2022-11-28T12:54:19.039Z,100567.53
2022-11-28T12:56:59.881Z,100602.16
2022-11-28T12:59:36.606Z,100577.16
2022-11-28T13:02:23.642Z,100597.94
2022-11-28T13:05:15.727Z,100602.31
2022-11-28T13:07:55.001Z,100614.59
2022-11-28T13:10:34.943Z,100607.00
2022-11-28T13:13:11.574Z,100587.03
2022-11-28T13:15:54.253Z,100618.00
2022-11-28T13:18:35.820Z,100607.94
2022-11-28T13:21:18.078Z,100608.03
2022-11-28T13:23:54.098Z,100613.34
2022-11-28T13:26:43.605Z,100614.91
2022-11-28T13:29:26.588Z,100618.28
2022-11-28T13:32:03.359Z,100617.31
2022-11-28T13:34:34.143Z,100621.59
2022-11-28T13:40:09.486Z,100613.09
2022-11-28T13:43:07.581Z,100616.56
2022-11-28T13:45:40.205Z,100620.88
2022-11-28T13:49:12.739Z,100583.22
2022-11-28T13:51:32.793Z,100618.38
2022-11-28T13:54:46.379Z,100585.03
2022-11-28T13:57:32.486Z,100563.16
2022-11-28T14:00:10.327Z,100610.03
2022-11-28T14:02:48.530Z,100620.22
2022-11-28T14:05:36.237Z,100614.25
2022-11-28T14:08:10.489Z,100623.53
2022-11-28T14:11:01.991Z,100597.66
2022-11-28T14:13:55.402Z,100569.13
2022-11-28T14:16:45.500Z,100614.97
2022-11-28T14:19:34.959Z,100612.44
2022-11-28T14:22:20.424Z,100568.50
2022-11-28T14:24:59.273Z,100632.13
2022-11-28T14:27:32.839Z,100587.13
2022-11-28T14:30:04.035Z,100595.69
2022-11-28T14:32:43.291Z,100643.94
2022-11-28T14:35:20.067Z,100645.34
2022-11-28T14:37:57.755Z,100584.81
2022-11-28T14:41:11.748Z,100648.25
2022-11-28T14:43:42.621Z,100644.63
2022-11-28T14:46:28.401Z,100649.88
2022-11-28T14:49:25.669Z,100645.44
2022-11-28T14:52:41.443Z,100658.16
2022-11-28T14:55:06.468Z,100590.78
2022-11-28T14:57:53.945Z,100651.97
2022-11-28T15:00:27.854Z,100657.78
2022-11-28T15:03:16.374Z,100660.69
2022-11-28T15:05:54.790Z,100654.69
2022-11-28T15:08:45.634Z,100656.47
2022-11-28T15:11:41.569Z,100659.13
2022-11-28T15:14:22.559Z,100662.53
2022-11-28T15:16:58.538Z,100646.13
2022-11-28T15:19:33.813Z,100653.00
2022-11-28T15:22:06.402Z,100658.84
2022-11-28T15:24:38.215Z,100649.25
2022-11-28T15:27:26.366Z,100663.13
2022-11-28T15:30:04.479Z,100665.53
2022-11-28T15:32:39.659Z,100647.31
2022-11-28T15:35:16.585Z,100654.59
2022-11-28T15:37:56.664Z,100657.03
2022-11-28T15:40:33.046Z,100606.59
2022-11-28T15:43:08.036Z,100603.09
2022-11-28T15:45:42.891Z,100655.53
2022-11-28T15:48:30.965Z,100651.91
2022-11-28T15:51:09.855Z,100663.16
2022-11-28T15:53:45.898Z,100656.63
2022-11-28T15:56:19.152Z,100638.63
2022-11-28T15:58:52.915Z,100598.75
2022-11-28T16:01:27.362Z,100650.78
2022-11-28T16:04:05.031Z,100644.41
2022-11-28T16:06:42.697Z,100655.56
2022-11-28T16:09:29.892Z,100647.44
2022-11-28T16:11:59.980Z,100669.75
2022-11-28T16:14:36.133Z,100628.00
2022-11-28T16:17:12.917Z,100657.31
2022-11-28T16:19:46.641Z,100659.13
2022-11-28T16:22:22.133Z,100598.94
2022-11-28T16:24:56.646Z,100634.91
2022-11-28T16:27:36.091Z,100661.59
2022-11-28T16:30:29.408Z,100652.88
2022-11-28T16:33:03.502Z,100657.09
2022-11-28T16:35:38.862Z,100637.25
2022-11-28T16:38:19.118Z,100632.06
2022-11-28T16:41:02.779Z,100660.25
2022-11-28T16:43:38.597Z,100655.41
2022-11-28T16:46:22.888Z,100610.72
2022-11-28T16:48:59.375Z,100671.25
2022-11-28T16:51:38.117Z,100668.75
2022-11-28T16:54:35.199Z,100660.91
2022-11-28T16:57:15.502Z,100615.94
2022-11-28T16:59:46.785Z,100681.25
2022-11-28T17:02:20.648Z,100618.63
2022-11-28T17:04:52.378Z,100636.56
2022-11-28T17:07:26.543Z,100635.88
2022-11-28T17:09:58.472Z,100630.63
2022-11-28T17:12:36.143Z,100631.38
2022-11-28T17:15:16.878Z,100673.75
2022-11-28T17:17:48.072Z,100684.91
2022-11-28T17:20:20.517Z,100579.75
2022-11-28T17:22:56.479Z,100685.81
2022-11-28T17:25:28.410Z,100688.31
2022-11-28T17:28:00.915Z,100692.66
2022-11-28T17:30:34.652Z,100667.66
2022-11-28T17:33:06.592Z,100701.22
2022-11-28T17:35:45.636Z,100702.94
2022-11-28T17:38:16.528Z,100622.63
2022-11-28T17:40:46.890Z,100690.75
2022-11-28T17:43:24.280Z,100691.72
2022-11-28T17:45:54.305Z,100684.59
2022-11-28T17:48:24.402Z,100706.13
2022-11-28T17:50:57.663Z,100695.88
2022-11-28T17:53:27.693Z,100661.88
2022-11-28T17:56:01.143Z,100696.59
2022-11-28T17:58:33.875Z,100642.06
2022-11-28T18:01:12.543Z,100723.81
2022-11-28T18:03:42.756Z,100666.03
2022-11-28T18:06:18.156Z,100705.25
2022-11-28T18:08:49.307Z,100700.00
2022-11-28T18:11:22.726Z,100707.03
2022-11-28T18:13:58.694Z,100718.16
2022-11-28T18:16:30.925Z,100665.41
2022-11-28T18:19:00.966Z,100593.91
2022-11-28T18:21:31.969Z,100696.34
2022-11-28T18:24:04.729Z,100707.03
2022-11-28T18:26:34.983Z,100722.72
2022-11-28T18:29:09.973Z,100696.22
2022-11-28T18:31:40.662Z,100723.63
2022-11-28T18:34:11.926Z,100666.81
2022-11-28T18:36:43.700Z,100726.19
2022-11-28T18:39:17.159Z,100674.53
2022-11-28T18:41:47.760Z,100626.16
2022-11-28T18:44:21.144Z,100678.88
2022-11-28T18:46:52.730Z,100698.59
2022-11-28T18:49:22.823Z,100717.50
2022-11-28T18:51:57.595Z,100712.19
2022-11-28T18:54:31.153Z,100706.22
2022-11-28T18:57:01.140Z,100682.00
2022-11-28T18:59:34.111Z,100734.69
2022-11-28T19:02:04.169Z,100674.41
2022-11-28T19:04:34.500Z,100730.47
2022-11-28T19:07:04.404Z,100685.53
2022-11-28T19:09:34.420Z,100731.84
2022-11-28T19:12:05.387Z,100675.66
2022-11-28T19:14:42.478Z,100734.22
2022-11-28T19:17:12.585Z,100703.72
2022-11-28T19:19:47.712Z,100685.00
2022-11-28T19:22:18.897Z,100729.06
2022-11-28T19:24:49.088Z,100730.31
2022-11-28T19:27:19.085Z,100736.88
2022-11-28T19:29:55.316Z,100712.94
2022-11-28T19:32:28.630Z,100642.75
2022-11-28T19:35:00.606Z,100688.56
2022-11-28T19:37:30.953Z,100728.03
2022-11-28T19:40:08.278Z,100765.06
2022-11-28T19:42:44.442Z,100760.81
2022-11-28T19:45:17.178Z,100741.66
2022-11-28T19:47:48.677Z,100764.00
2022-11-28T19:50:19.031Z,100732.06
2022-11-28T19:52:52.700Z,100766.78
2022-11-28T19:55:28.456Z,100769.09
2022-11-28T19:57:59.524Z,100763.75
2022-11-28T20:00:32.998Z,100728.22
2022-11-28T20:03:04.051Z,100759.28
2022-11-28T20:05:35.397Z,100687.56
2022-11-28T20:08:06.233Z,100648.81
2022-11-28T20:10:38.316Z,100619.50
2022-11-28T20:13:09.394Z,100738.13
2022-11-28T20:15:44.141Z,100661.47
2022-11-28T20:18:20.419Z,100787.50
2022-11-28T20:20:52.082Z,100766.34
2022-11-28T20:23:23.500Z,100725.16
2022-11-28T20:25:54.887Z,100784.13
2022-11-28T20:28:28.755Z,100756.47
2022-11-28T20:31:02.420Z,100654.50
2022-11-28T20:33:32.540Z,100678.56
2022-11-28T20:36:10.869Z,100731.31
2022-11-28T20:38:42.595Z,100734.91
2022-11-28T20:41:14.404Z,100779.88
2022-11-28T20:43:44.891Z,100779.06
2022-11-28T20:46:25.268Z,100784.47
2022-11-28T20:49:01.114Z,100784.28
2022-11-28T20:51:34.698Z,100786.75
2022-11-28T20:54:05.728Z,100745.50
2022-11-28T20:57:04.952Z,100795.50
2022-11-28T20:59:29.361Z,100793.59
2022-11-28T21:02:05.536Z,100797.19
2022-11-28T21:04:35.456Z,100789.25
2022-11-28T21:07:09.701Z,100794.53
2022-11-28T21:09:40.788Z,100792.72
2022-11-28T21:12:20.684Z,100779.06
2022-11-28T21:14:52.078Z,100748.66
2022-11-28T21:17:26.605Z,100805.88
2022-11-28T21:19:59.707Z,100808.47
2022-11-28T21:22:29.617Z,100792.03
2022-11-28T21:24:59.470Z,100736.59
2022-11-28T21:27:32.741Z,100721.97
2022-11-28T21:30:02.658Z,100820.22
2022-11-28T21:32:39.257Z,100772.25
2022-11-28T21:35:13.046Z,100759.84
2022-11-28T21:37:47.762Z,100788.13
2022-11-28T21:40:17.908Z,100811.53
2022-11-28T21:42:47.785Z,100811.34
2022-11-28T21:45:18.790Z,100776.00
2022-11-28T21:47:51.285Z,100807.75
2022-11-28T21:50:22.209Z,100820.66
2022-11-28T21:52:52.069Z,100783.47
2022-11-28T21:55:25.788Z,100758.50
2022-11-28T21:57:55.811Z,100784.25
2022-11-28T22:00:52.135Z,100823.13
2022-11-28T22:03:21.243Z,100812.97
2022-11-28T22:05:52.626Z,100807.53
2022-11-28T22:08:22.669Z,100767.69
2022-11-28T22:10:52.614Z,100815.47
2022-11-28T22:13:22.523Z,100793.88
2022-11-28T22:15:52.613Z,100764.94
2022-11-28T22:18:27.791Z,100810.06
2022-11-28T22:21:06.530Z,100810.88
2022-11-28T22:23:41.264Z,100724.63
2022-11-28T22:26:12.683Z,100794.50
2022-11-28T22:28:50.413Z,100732.50
2022-11-28T22:31:23.467Z,100815.84
2022-11-28T22:33:57.014Z,100812.50
2022-11-28T22:36:26.977Z,100771.72
2022-11-28T22:38:59.434Z,100818.59
2022-11-28T22:41:30.359Z,100820.28
2022-11-28T22:44:04.354Z,100775.19
2022-11-28T22:46:35.809Z,100830.50
2022-11-28T22:49:09.614Z,100835.03
2022-11-28T22:51:41.724Z,100792.66
2022-11-28T22:54:15.731Z,100825.66
2022-11-28T22:56:46.548Z,100831.50
2022-11-28T22:59:18.256Z,100840.00
2022-11-28T23:01:48.270Z,100833.31
2022-11-28T23:04:21.080Z,100836.59
2022-11-28T23:06:50.944Z,100839.91
2022-11-28T23:09:22.007Z,100834.66
2022-11-28T23:11:53.079Z,100820.78
2022-11-28T23:14:22.919Z,100822.28
2022-11-28T23:16:53.065Z,100830.97
2022-11-28T23:19:26.423Z,100780.78
2022-11-28T23:21:57.814Z,100828.31
2022-11-28T23:24:27.937Z,100833.44
2022-11-28T23:26:58.622Z,100807.75
2022-11-28T23:29:28.690Z,100823.88
2022-11-28T23:31:58.681Z,100828.25
2022-11-28T23:34:32.345Z,100834.50
2022-11-28T23:37:03.056Z,100767.97
2022-11-28T23:39:32.895Z,100839.59
2022-11-28T23:42:07.380Z,100843.84
2022-11-28T23:44:37.162Z,100824.13
2022-11-28T23:47:07.173Z,100839.63
2022-11-28T23:49:39.582Z,100842.28
2022-11-28T23:52:09.378Z,100794.50
2022-11-28T23:54:39.258Z,100851.56
2022-11-28T23:57:09.107Z,100844.75
2022-11-28T23:59:38.923Z,100815.38
